createdAt,value
2023-03-22T00:01:36.736Z,100718.59
2023-03-22T00:11:39.793Z,100700.25
2023-03-22T00:21:44.265Z,100692.28
2023-03-22T00:31:47.392Z,100669.94
2023-03-22T00:41:52.336Z,100667.81
2023-03-22T00:51:55.628Z,100649.75
2023-03-22T01:02:00.696Z,100637.16
2023-03-22T01:12:04.134Z,100624.22
2023-03-22T01:22:09.589Z,100602.06
2023-03-22T01:32:13.148Z,100581.66
2023-03-22T01:42:21.030Z,100564.59
2023-03-22T01:52:25.078Z,100538.34
2023-03-22T02:02:44.463Z,100526.13
2023-03-22T02:13:20.726Z,100514.59
2023-03-22T02:24:02.630Z,100510.91
2023-03-22T02:34:43.964Z,100501.06
2023-03-22T02:44:54.875Z,100484.94
2023-03-22T02:55:05.312Z,100491.13
2023-03-22T03:05:14.438Z,100471.63
2023-03-22T03:15:20.315Z,100465.63
2023-03-22T03:25:32.863Z,100458.00
2023-03-22T03:35:40.988Z,100464.19
2023-03-22T03:45:49.024Z,100458.00
2023-03-22T03:55:52.153Z,100465.22
2023-03-22T04:05:57.037Z,100465.66
2023-03-22T04:16:02.255Z,100452.41
2023-03-22T04:26:10.966Z,100447.53
2023-03-22T04:36:30.836Z,100436.84
2023-03-22T04:47:01.331Z,100436.34
2023-03-22T04:57:05.020Z,100435.56
2023-03-22T05:07:15.779Z,100430.66
2023-03-22T05:17:25.148Z,100429.78
2023-03-22T05:27:34.717Z,100418.03
2023-03-22T05:37:56.758Z,100420.00
2023-03-22T05:48:04.388Z,100412.59
2023-03-22T05:58:19.039Z,100417.19
2023-03-22T06:08:26.739Z,100419.75
2023-03-22T06:18:36.189Z,100417.03
2023-03-22T06:28:46.072Z,100422.97
2023-03-22T06:38:49.285Z,100425.53
2023-03-22T06:48:55.185Z,100427.47
2023-03-22T06:59:09.388Z,100421.97
2023-03-22T07:09:24.902Z,100428.72
2023-03-22T07:19:31.343Z,100425.69
2023-03-22T07:29:38.537Z,100433.53
2023-03-22T07:39:42.616Z,100435.75
2023-03-22T07:49:51.510Z,100425.53
2023-03-22T08:00:13.476Z,100434.28
2023-03-22T08:10:22.015Z,100438.63
2023-03-22T08:20:26.144Z,100448.13
2023-03-22T08:30:32.737Z,100439.81
2023-03-22T08:40:35.973Z,100422.81
2023-03-22T08:50:41.364Z,100423.91
2023-03-22T09:00:54.013Z,100428.63
2023-03-22T09:11:09.096Z,100417.06
2023-03-22T09:21:13.101Z,100423.59
2023-03-22T09:31:27.747Z,100413.38
2023-03-22T09:41:51.653Z,100408.34
2023-03-22T09:51:57.154Z,100398.06
2023-03-22T10:02:02.594Z,100417.50
2023-03-22T10:12:18.305Z,100409.00
2023-03-22T10:22:25.791Z,100417.06
2023-03-22T10:32:54.746Z,100429.97
2023-03-22T10:43:05.233Z,100425.81
2023-03-22T10:53:15.982Z,100409.97
2023-03-22T11:03:39.558Z,100417.03
2023-03-22T11:13:45.410Z,100404.03
2023-03-22T11:23:56.458Z,100399.31
2023-03-22T11:34:02.620Z,100406.84
2023-03-22T11:44:13.456Z,100394.88
2023-03-22T11:54:28.432Z,100393.38
2023-03-22T12:04:35.682Z,100371.84
2023-03-22T12:14:48.397Z,100379.88
2023-03-22T12:24:51.556Z,100378.50
2023-03-22T12:35:09.092Z,100381.22
2023-03-22T12:45:23.833Z,100375.91
2023-03-22T12:55:32.013Z,100385.47
2023-03-22T13:05:36.245Z,100389.13
2023-03-22T13:15:43.935Z,100363.31
2023-03-22T13:26:01.984Z,100364.22
2023-03-22T13:36:23.272Z,100370.13
2023-03-22T13:46:53.889Z,100362.22
2023-03-22T13:57:18.657Z,100359.06
2023-03-22T14:07:27.784Z,100362.38
2023-03-22T14:17:36.769Z,100360.84
